sensor_id;sensor_type;location;lat;lon;timestamp;P1;durP1;ratioP1;P2;durP2;ratioP2
8228;SDS011;4155;50.118;8.714;2022-07-12T00:00:52;3.53;;;2.40;;
8228;SDS011;4155;50.118;8.714;2022-07-12T00:03:20;3.70;;;2.53;;
8228;SDS011;4155;50.118;8.714;2022-07-12T00:05:48;2.27;;;2.00;;
8228;SDS011;4155;50.118;8.714;2022-07-12T00:08:16;2.40;;;2.20;;
8228;SDS011;4155;50.118;8.714;2022-07-12T00:10:45;2.13;;;1.87;;
8228;SDS011;4155;50.118;8.714;2022-07-12T00:13:12;3.20;;;1.83;;
8228;SDS011;4155;50.118;8.714;2022-07-12T00:15:41;2.70;;;2.00;;
8228;SDS011;4155;50.118;8.714;2022-07-12T00:18:09;4.03;;;2.17;;
8228;SDS011;4155;50.118;8.714;2022-07-12T00:20:38;2.20;;;2.00;;
8228;SDS011;4155;50.118;8.714;2022-07-12T00:23:05;1.80;;;1.70;;
8228;SDS011;4155;50.118;8.714;2022-07-12T00:25:33;3.70;;;1.80;;
8228;SDS011;4155;50.118;8.714;2022-07-12T00:28:02;2.43;;;2.20;;
8228;SDS011;4155;50.118;8.714;2022-07-12T00:30:30;3.53;;;2.10;;
8228;SDS011;4155;50.118;8.714;2022-07-12T00:32:58;3.10;;;1.90;;
8228;SDS011;4155;50.118;8.714;2022-07-12T00:35:25;2.33;;;2.00;;
8228;SDS011;4155;50.118;8.714;2022-07-12T00:37:54;2.10;;;2.00;;
8228;SDS011;4155;50.118;8.714;2022-07-12T00:40:21;5.20;;;2.30;;
8228;SDS011;4155;50.118;8.714;2022-07-12T00:42:49;4.70;;;2.00;;
8228;SDS011;4155;50.118;8.714;2022-07-12T00:45:19;2.20;;;1.87;;
8228;SDS011;4155;50.118;8.714;2022-07-12T00:47:46;7.50;;;2.57;;
8228;SDS011;4155;50.118;8.714;2022-07-12T00:50:18;6.70;;;2.60;;
8228;SDS011;4155;50.118;8.714;2022-07-12T00:52:49;3.37;;;2.10;;
8228;SDS011;4155;50.118;8.714;2022-07-12T00:55:19;2.10;;;2.00;;
8228;SDS011;4155;50.118;8.714;2022-07-12T00:57:48;2.23;;;2.13;;
8228;SDS011;4155;50.118;8.714;2022-07-12T01:00:17;2.50;;;2.30;;
8228;SDS011;4155;50.118;8.714;2022-07-12T01:02:47;2.20;;;2.07;;
8228;SDS011;4155;50.118;8.714;2022-07-12T01:05:17;2.30;;;2.10;;
8228;SDS011;4155;50.118;8.714;2022-07-12T01:07:44;2.23;;;2.03;;
8228;SDS011;4155;50.118;8.714;2022-07-12T01:10:12;2.50;;;2.30;;
8228;SDS011;4155;50.118;8.714;2022-07-12T01:12:40;3.50;;;1.90;;
8228;SDS011;4155;50.118;8.714;2022-07-12T01:15:08;2.30;;;2.10;;
8228;SDS011;4155;50.118;8.714;2022-07-12T01:17:37;2.57;;;2.10;;
8228;SDS011;4155;50.118;8.714;2022-07-12T01:20:06;2.17;;;2.07;;
8228;SDS011;4155;50.118;8.714;2022-07-12T01:22:35;2.43;;;2.23;;
8228;SDS011;4155;50.118;8.714;2022-07-12T01:25:05;2.27;;;2.07;;
8228;SDS011;4155;50.118;8.714;2022-07-12T01:27:34;2.10;;;2.00;;
8228;SDS011;4155;50.118;8.714;2022-07-12T01:30:02;1.90;;;1.80;;
8228;SDS011;4155;50.118;8.714;2022-07-12T01:32:30;2.00;;;1.90;;
8228;SDS011;4155;50.118;8.714;2022-07-12T01:34:58;1.97;;;1.87;;
8228;SDS011;4155;50.118;8.714;2022-07-12T01:37:33;2.27;;;2.10;;
8228;SDS011;4155;50.118;8.714;2022-07-12T01:40:02;2.13;;;1.87;;
8228;SDS011;4155;50.118;8.714;2022-07-12T01:42:33;1.90;;;1.80;;
8228;SDS011;4155;50.118;8.714;2022-07-12T01:45:00;2.10;;;2.00;;
8228;SDS011;4155;50.118;8.714;2022-07-12T01:47:29;4.20;;;2.20;;
8228;SDS011;4155;50.118;8.714;2022-07-12T01:49:58;2.43;;;1.97;;
8228;SDS011;4155;50.118;8.714;2022-07-12T01:52:26;3.50;;;2.50;;
8228;SDS011;4155;50.118;8.714;2022-07-12T01:54:55;2.33;;;2.13;;
8228;SDS011;4155;50.118;8.714;2022-07-12T01:57:24;3.93;;;2.20;;
8228;SDS011;4155;50.118;8.714;2022-07-12T01:59:54;2.30;;;2.10;;
8228;SDS011;4155;50.118;8.714;2022-07-12T02:02:23;3.03;;;2.77;;
8228;SDS011;4155;50.118;8.714;2022-07-12T02:04:52;2.00;;;1.90;;
8228;SDS011;4155;50.118;8.714;2022-07-12T02:07:21;2.57;;;2.37;;
8228;SDS011;4155;50.118;8.714;2022-07-12T02:09:50;2.20;;;2.00;;
8228;SDS011;4155;50.118;8.714;2022-07-12T02:12:18;2.00;;;1.90;;
8228;SDS011;4155;50.118;8.714;2022-07-12T02:14:46;3.73;;;2.50;;
8228;SDS011;4155;50.118;8.714;2022-07-12T02:17:15;1.90;;;1.80;;
8228;SDS011;4155;50.118;8.714;2022-07-12T02:19:43;2.40;;;2.20;;
8228;SDS011;4155;50.118;8.714;2022-07-12T02:22:11;2.13;;;2.03;;
8228;SDS011;4155;50.118;8.714;2022-07-12T02:24:39;2.40;;;2.20;;
8228;SDS011;4155;50.118;8.714;2022-07-12T02:27:07;3.80;;;2.90;;
8228;SDS011;4155;50.118;8.714;2022-07-12T02:29:34;2.73;;;2.53;;
8228;SDS011;4155;50.118;8.714;2022-07-12T02:32:02;2.50;;;2.23;;
8228;SDS011;4155;50.118;8.714;2022-07-12T02:34:32;2.40;;;2.27;;
8228;SDS011;4155;50.118;8.714;2022-07-12T02:37:00;4.20;;;2.67;;
8228;SDS011;4155;50.118;8.714;2022-07-12T02:39:28;3.83;;;2.10;;
8228;SDS011;4155;50.118;8.714;2022-07-12T02:41:56;4.50;;;2.67;;
8228;SDS011;4155;50.118;8.714;2022-07-12T02:44:24;3.00;;;2.70;;
8228;SDS011;4155;50.118;8.714;2022-07-12T02:46:51;2.77;;;2.50;;
8228;SDS011;4155;50.118;8.714;2022-07-12T02:49:19;3.83;;;2.50;;
8228;SDS011;4155;50.118;8.714;2022-07-12T02:51:48;2.37;;;2.27;;
8228;SDS011;4155;50.118;8.714;2022-07-12T02:54:16;6.63;;;2.53;;
8228;SDS011;4155;50.118;8.714;2022-07-12T02:56:43;6.33;;;2.30;;
8228;SDS011;4155;50.118;8.714;2022-07-12T02:59:11;2.63;;;2.43;;
8228;SDS011;4155;50.118;8.714;2022-07-12T03:01:38;2.93;;;2.70;;
8228;SDS011;4155;50.118;8.714;2022-07-12T03:04:06;3.80;;;2.90;;
8228;SDS011;4155;50.118;8.714;2022-07-12T03:06:34;2.90;;;2.70;;
8228;SDS011;4155;50.118;8.714;2022-07-12T03:09:03;2.93;;;2.73;;
8228;SDS011;4155;50.118;8.714;2022-07-12T03:11:31;5.17;;;2.97;;
8228;SDS011;4155;50.118;8.714;2022-07-12T03:13:59;3.13;;;2.70;;
8228;SDS011;4155;50.118;8.714;2022-07-12T03:16:27;3.10;;;2.80;;
8228;SDS011;4155;50.118;8.714;2022-07-12T03:18:54;2.73;;;2.53;;
8228;SDS011;4155;50.118;8.714;2022-07-12T03:21:22;2.90;;;2.70;;
8228;SDS011;4155;50.118;8.714;2022-07-12T03:23:50;2.80;;;2.50;;
8228;SDS011;4155;50.118;8.714;2022-07-12T03:26:19;3.17;;;2.63;;
8228;SDS011;4155;50.118;8.714;2022-07-12T03:28:47;2.90;;;2.70;;
8228;SDS011;4155;50.118;8.714;2022-07-12T03:31:15;3.10;;;2.70;;
8228;SDS011;4155;50.118;8.714;2022-07-12T03:33:43;3.10;;;2.80;;
8228;SDS011;4155;50.118;8.714;2022-07-12T03:36:11;3.23;;;2.67;;
8228;SDS011;4155;50.118;8.714;2022-07-12T03:38:39;3.10;;;2.80;;
8228;SDS011;4155;50.118;8.714;2022-07-12T03:41:08;2.97;;;2.77;;
8228;SDS011;4155;50.118;8.714;2022-07-12T03:43:37;5.50;;;2.83;;
8228;SDS011;4155;50.118;8.714;2022-07-12T03:46:05;3.73;;;2.60;;
8228;SDS011;4155;50.118;8.714;2022-07-12T03:48:33;5.00;;;3.13;;
8228;SDS011;4155;50.118;8.714;2022-07-12T03:51:00;7.33;;;2.90;;
8228;SDS011;4155;50.118;8.714;2022-07-12T03:53:28;4.57;;;2.83;;
8228;SDS011;4155;50.118;8.714;2022-07-12T03:55:55;3.10;;;2.80;;
8228;SDS011;4155;50.118;8.714;2022-07-12T03:58:23;2.90;;;2.50;;
8228;SDS011;4155;50.118;8.714;2022-07-12T04:00:52;4.77;;;2.63;;
8228;SDS011;4155;50.118;8.714;2022-07-12T04:03:20;2.50;;;2.30;;
8228;SDS011;4155;50.118;8.714;2022-07-12T04:05:49;3.23;;;2.93;;
8228;SDS011;4155;50.118;8.714;2022-07-12T04:08:16;3.00;;;2.70;;
8228;SDS011;4155;50.118;8.714;2022-07-12T04:10:44;4.20;;;2.67;;
8228;SDS011;4155;50.118;8.714;2022-07-12T04:13:12;4.20;;;2.43;;
8228;SDS011;4155;50.118;8.714;2022-07-12T04:15:40;2.93;;;2.63;;
8228;SDS011;4155;50.118;8.714;2022-07-12T04:18:09;2.83;;;2.63;;
8228;SDS011;4155;50.118;8.714;2022-07-12T04:20:36;2.80;;;2.60;;
8228;SDS011;4155;50.118;8.714;2022-07-12T04:23:06;2.30;;;2.20;;
8228;SDS011;4155;50.118;8.714;2022-07-12T04:25:35;2.10;;;2.00;;
8228;SDS011;4155;50.118;8.714;2022-07-12T04:28:03;5.60;;;1.97;;
8228;SDS011;4155;50.118;8.714;2022-07-12T04:30:31;2.13;;;1.93;;
8228;SDS011;4155;50.118;8.714;2022-07-12T04:32:58;2.40;;;1.50;;
8228;SDS011;4155;50.118;8.714;2022-07-12T04:35:28;1.70;;;1.60;;
8228;SDS011;4155;50.118;8.714;2022-07-12T04:37:55;2.50;;;1.80;;
8228;SDS011;4155;50.118;8.714;2022-07-12T04:40:23;4.20;;;1.80;;
8228;SDS011;4155;50.118;8.714;2022-07-12T04:42:50;2.97;;;1.90;;
8228;SDS011;4155;50.118;8.714;2022-07-12T04:45:20;5.73;;;1.90;;
8228;SDS011;4155;50.118;8.714;2022-07-12T04:47:48;2.27;;;1.60;;
8228;SDS011;4155;50.118;8.714;2022-07-12T04:50:16;2.30;;;1.93;;
8228;SDS011;4155;50.118;8.714;2022-07-12T04:52:45;2.00;;;1.77;;
8228;SDS011;4155;50.118;8.714;2022-07-12T04:55:14;1.70;;;1.60;;
8228;SDS011;4155;50.118;8.714;2022-07-12T04:57:42;1.97;;;1.77;;
8228;SDS011;4155;50.118;8.714;2022-07-12T05:00:10;1.50;;;1.40;;
8228;SDS011;4155;50.118;8.714;2022-07-12T05:02:38;2.13;;;1.70;;
8228;SDS011;4155;50.118;8.714;2022-07-12T05:05:06;2.53;;;1.70;;
8228;SDS011;4155;50.118;8.714;2022-07-12T05:07:34;2.30;;;1.47;;
8228;SDS011;4155;50.118;8.714;2022-07-12T05:10:03;1.93;;;1.50;;
8228;SDS011;4155;50.118;8.714;2022-07-12T05:12:31;1.57;;;1.47;;
8228;SDS011;4155;50.118;8.714;2022-07-12T05:14:59;1.63;;;1.53;;
8228;SDS011;4155;50.118;8.714;2022-07-12T05:17:27;3.67;;;2.00;;
8228;SDS011;4155;50.118;8.714;2022-07-12T05:19:55;1.50;;;1.40;;
8228;SDS011;4155;50.118;8.714;2022-07-12T05:22:23;3.77;;;1.70;;
8228;SDS011;4155;50.118;8.714;2022-07-12T05:24:51;3.73;;;1.70;;
8228;SDS011;4155;50.118;8.714;2022-07-12T05:27:20;2.10;;;1.90;;
8228;SDS011;4155;50.118;8.714;2022-07-12T05:29:47;2.30;;;1.83;;
8228;SDS011;4155;50.118;8.714;2022-07-12T05:32:15;2.70;;;1.70;;
8228;SDS011;4155;50.118;8.714;2022-07-12T05:34:43;3.67;;;1.70;;
8228;SDS011;4155;50.118;8.714;2022-07-12T05:37:10;1.97;;;1.63;;
8228;SDS011;4155;50.118;8.714;2022-07-12T05:39:38;4.37;;;1.67;;
8228;SDS011;4155;50.118;8.714;2022-07-12T05:42:10;2.07;;;1.93;;
8228;SDS011;4155;50.118;8.714;2022-07-12T05:44:39;3.20;;;1.70;;
8228;SDS011;4155;50.118;8.714;2022-07-12T05:47:07;4.40;;;1.90;;
8228;SDS011;4155;50.118;8.714;2022-07-12T05:49:34;3.27;;;1.80;;
8228;SDS011;4155;50.118;8.714;2022-07-12T05:52:02;1.97;;;1.77;;
8228;SDS011;4155;50.118;8.714;2022-07-12T05:54:47;2.17;;;1.97;;
8228;SDS011;4155;50.118;8.714;2022-07-12T05:57:15;3.80;;;1.67;;
8228;SDS011;4155;50.118;8.714;2022-07-12T05:59:44;3.33;;;1.77;;
8228;SDS011;4155;50.118;8.714;2022-07-12T06:02:12;3.53;;;1.70;;
8228;SDS011;4155;50.118;8.714;2022-07-12T06:04:40;3.73;;;1.90;;
8228;SDS011;4155;50.118;8.714;2022-07-12T06:07:15;2.50;;;1.93;;
8228;SDS011;4155;50.118;8.714;2022-07-12T06:09:43;2.67;;;1.73;;
8228;SDS011;4155;50.118;8.714;2022-07-12T06:12:11;1.60;;;1.50;;
8228;SDS011;4155;50.118;8.714;2022-07-12T06:14:39;3.50;;;1.70;;
8228;SDS011;4155;50.118;8.714;2022-07-12T06:17:08;1.80;;;1.70;;
8228;SDS011;4155;50.118;8.714;2022-07-12T06:19:36;4.17;;;1.63;;
8228;SDS011;4155;50.118;8.714;2022-07-12T06:22:04;2.10;;;1.90;;
8228;SDS011;4155;50.118;8.714;2022-07-12T06:24:31;3.80;;;1.90;;
8228;SDS011;4155;50.118;8.714;2022-07-12T06:26:59;2.00;;;1.77;;
8228;SDS011;4155;50.118;8.714;2022-07-12T06:29:26;1.73;;;1.60;;
8228;SDS011;4155;50.118;8.714;2022-07-12T06:31:54;1.80;;;1.70;;
8228;SDS011;4155;50.118;8.714;2022-07-12T06:34:23;2.03;;;1.60;;
8228;SDS011;4155;50.118;8.714;2022-07-12T06:36:51;2.57;;;1.77;;
8228;SDS011;4155;50.118;8.714;2022-07-12T06:39:18;1.40;;;1.30;;
8228;SDS011;4155;50.118;8.714;2022-07-12T06:41:46;1.40;;;1.30;;
8228;SDS011;4155;50.118;8.714;2022-07-12T06:44:14;1.70;;;1.60;;
8228;SDS011;4155;50.118;8.714;2022-07-12T06:46:42;2.03;;;1.83;;
8228;SDS011;4155;50.118;8.714;2022-07-12T06:49:14;2.53;;;1.30;;
8228;SDS011;4155;50.118;8.714;2022-07-12T06:51:43;2.73;;;1.80;;
8228;SDS011;4155;50.118;8.714;2022-07-12T06:54:11;2.87;;;1.70;;
8228;SDS011;4155;50.118;8.714;2022-07-12T06:56:39;6.83;;;1.63;;
8228;SDS011;4155;50.118;8.714;2022-07-12T06:59:07;1.83;;;1.60;;
8228;SDS011;4155;50.118;8.714;2022-07-12T07:01:41;2.60;;;1.50;;
8228;SDS011;4155;50.118;8.714;2022-07-12T07:04:09;3.63;;;1.63;;
8228;SDS011;4155;50.118;8.714;2022-07-12T07:06:36;1.50;;;1.30;;
8228;SDS011;4155;50.118;8.714;2022-07-12T07:09:05;1.20;;;1.20;;
8228;SDS011;4155;50.118;8.714;2022-07-12T07:11:34;1.33;;;1.23;;
8228;SDS011;4155;50.118;8.714;2022-07-12T07:14:03;2.33;;;1.57;;
8228;SDS011;4155;50.118;8.714;2022-07-12T07:16:31;1.60;;;1.50;;
8228;SDS011;4155;50.118;8.714;2022-07-12T07:18:58;5.00;;;1.30;;
8228;SDS011;4155;50.118;8.714;2022-07-12T07:21:26;1.33;;;1.23;;
8228;SDS011;4155;50.118;8.714;2022-07-12T07:23:54;5.63;;;1.50;;
8228;SDS011;4155;50.118;8.714;2022-07-12T07:26:26;1.27;;;1.10;;
8228;SDS011;4155;50.118;8.714;2022-07-12T07:28:54;2.50;;;1.40;;
8228;SDS011;4155;50.118;8.714;2022-07-12T07:31:39;3.80;;;3.27;;
8228;SDS011;4155;50.118;8.714;2022-07-12T07:34:07;1.63;;;1.53;;
8228;SDS011;4155;50.118;8.714;2022-07-12T07:36:35;1.47;;;1.30;;
8228;SDS011;4155;50.118;8.714;2022-07-12T07:39:03;1.30;;;1.20;;
8228;SDS011;4155;50.118;8.714;2022-07-12T07:41:32;1.80;;;1.70;;
8228;SDS011;4155;50.118;8.714;2022-07-12T07:44:00;1.90;;;1.80;;
8228;SDS011;4155;50.118;8.714;2022-07-12T07:46:27;1.80;;;1.70;;
8228;SDS011;4155;50.118;8.714;2022-07-12T07:48:55;2.77;;;1.93;;
8228;SDS011;4155;50.118;8.714;2022-07-12T07:51:23;1.60;;;1.50;;
8228;SDS011;4155;50.118;8.714;2022-07-12T07:53:52;1.50;;;1.40;;
8228;SDS011;4155;50.118;8.714;2022-07-12T07:56:20;1.50;;;1.40;;
8228;SDS011;4155;50.118;8.714;2022-07-12T07:58:49;1.80;;;1.70;;
8228;SDS011;4155;50.118;8.714;2022-07-12T08:01:18;1.57;;;1.47;;
8228;SDS011;4155;50.118;8.714;2022-07-12T08:03:45;3.70;;;1.30;;
8228;SDS011;4155;50.118;8.714;2022-07-12T08:06:13;2.10;;;1.00;;
8228;SDS011;4155;50.118;8.714;2022-07-12T08:08:41;1.50;;;1.40;;
8228;SDS011;4155;50.118;8.714;2022-07-12T08:11:28;3.43;;;1.40;;
8228;SDS011;4155;50.118;8.714;2022-07-12T08:13:57;2.40;;;1.30;;
8228;SDS011;4155;50.118;8.714;2022-07-12T08:16:25;1.33;;;1.30;;
8228;SDS011;4155;50.118;8.714;2022-07-12T08:18:53;1.73;;;1.33;;
8228;SDS011;4155;50.118;8.714;2022-07-12T08:21:22;1.90;;;1.70;;
8228;SDS011;4155;50.118;8.714;2022-07-12T08:23:50;8.63;;;1.70;;
8228;SDS011;4155;50.118;8.714;2022-07-12T08:26:17;2.10;;;1.70;;
8228;SDS011;4155;50.118;8.714;2022-07-12T08:28:45;2.03;;;1.40;;
8228;SDS011;4155;50.118;8.714;2022-07-12T08:31:14;1.47;;;1.37;;
8228;SDS011;4155;50.118;8.714;2022-07-12T08:33:43;2.53;;;1.47;;
8228;SDS011;4155;50.118;8.714;2022-07-12T08:36:11;3.77;;;2.17;;
8228;SDS011;4155;50.118;8.714;2022-07-12T08:38:38;2.37;;;2.17;;
8228;SDS011;4155;50.118;8.714;2022-07-12T08:41:10;1.50;;;1.40;;
8228;SDS011;4155;50.118;8.714;2022-07-12T08:43:39;1.93;;;1.33;;
8228;SDS011;4155;50.118;8.714;2022-07-12T08:46:08;1.63;;;1.53;;
8228;SDS011;4155;50.118;8.714;2022-07-12T08:48:38;1.67;;;1.30;;
8228;SDS011;4155;50.118;8.714;2022-07-12T08:51:08;1.43;;;1.33;;
8228;SDS011;4155;50.118;8.714;2022-07-12T08:53:37;1.47;;;1.33;;
8228;SDS011;4155;50.118;8.714;2022-07-12T08:56:06;1.60;;;1.50;;
8228;SDS011;4155;50.118;8.714;2022-07-12T08:58:34;3.90;;;1.50;;
8228;SDS011;4155;50.118;8.714;2022-07-12T09:01:02;3.40;;;1.70;;
8228;SDS011;4155;50.118;8.714;2022-07-12T09:03:30;1.50;;;1.40;;
8228;SDS011;4155;50.118;8.714;2022-07-12T09:05:59;1.37;;;1.27;;
8228;SDS011;4155;50.118;8.714;2022-07-12T09:08:27;1.20;;;1.10;;
8228;SDS011;4155;50.118;8.714;2022-07-12T09:10:57;1.30;;;1.20;;
8228;SDS011;4155;50.118;8.714;2022-07-12T09:16:18;2.30;;;1.53;;
8228;SDS011;4155;50.118;8.714;2022-07-12T09:18:47;1.50;;;1.40;;
8228;SDS011;4155;50.118;8.714;2022-07-12T09:21:26;1.20;;;1.10;;
8228;SDS011;4155;50.118;8.714;2022-07-12T09:23:57;1.40;;;1.30;;
8228;SDS011;4155;50.118;8.714;2022-07-12T09:26:29;2.83;;;1.60;;
8228;SDS011;4155;50.118;8.714;2022-07-12T09:29:04;1.40;;;1.30;;
8228;SDS011;4155;50.118;8.714;2022-07-12T09:31:38;1.80;;;1.70;;
8228;SDS011;4155;50.118;8.714;2022-07-12T09:34:24;2.73;;;1.97;;
8228;SDS011;4155;50.118;8.714;2022-07-12T09:37:11;1.60;;;1.50;;
8228;SDS011;4155;50.118;8.714;2022-07-12T09:39:40;2.07;;;1.37;;
8228;SDS011;4155;50.118;8.714;2022-07-12T09:42:08;1.47;;;1.37;;
8228;SDS011;4155;50.118;8.714;2022-07-12T09:44:37;1.50;;;1.37;;
8228;SDS011;4155;50.118;8.714;2022-07-12T09:47:06;2.00;;;1.20;;
8228;SDS011;4155;50.118;8.714;2022-07-12T09:49:39;0.90;;;0.90;;
8228;SDS011;4155;50.118;8.714;2022-07-12T09:52:09;1.40;;;1.30;;
8228;SDS011;4155;50.118;8.714;2022-07-12T09:54:40;3.63;;;1.30;;
8228;SDS011;4155;50.118;8.714;2022-07-12T09:57:11;1.80;;;1.30;;
8228;SDS011;4155;50.118;8.714;2022-07-12T09:59:45;1.83;;;1.30;;
8228;SDS011;4155;50.118;8.714;2022-07-12T10:02:14;1.30;;;1.20;;
8228;SDS011;4155;50.118;8.714;2022-07-12T10:04:43;1.70;;;1.60;;
8228;SDS011;4155;50.118;8.714;2022-07-12T10:07:14;1.50;;;1.40;;
8228;SDS011;4155;50.118;8.714;2022-07-12T10:09:44;6.50;;;1.20;;
8228;SDS011;4155;50.118;8.714;2022-07-12T10:12:14;1.47;;;1.30;;
8228;SDS011;4155;50.118;8.714;2022-07-12T10:14:45;2.87;;;1.37;;
8228;SDS011;4155;50.118;8.714;2022-07-12T10:17:13;1.67;;;1.40;;
8228;SDS011;4155;50.118;8.714;2022-07-12T10:19:49;1.40;;;1.30;;
8228;SDS011;4155;50.118;8.714;2022-07-12T10:22:21;4.00;;;1.30;;
8228;SDS011;4155;50.118;8.714;2022-07-12T10:24:49;2.20;;;1.97;;
8228;SDS011;4155;50.118;8.714;2022-07-12T10:27:26;1.47;;;1.37;;
8228;SDS011;4155;50.118;8.714;2022-07-12T10:30:13;3.17;;;1.40;;
8228;SDS011;4155;50.118;8.714;2022-07-12T10:32:45;1.50;;;1.40;;
8228;SDS011;4155;50.118;8.714;2022-07-12T10:35:18;1.20;;;1.10;;
8228;SDS011;4155;50.118;8.714;2022-07-12T10:40:46;1.30;;;1.20;;
8228;SDS011;4155;50.118;8.714;2022-07-12T10:43:16;1.10;;;1.10;;
8228;SDS011;4155;50.118;8.714;2022-07-12T10:46:19;1.53;;;1.00;;
8228;SDS011;4155;50.118;8.714;2022-07-12T10:48:51;1.20;;;1.10;;
8228;SDS011;4155;50.118;8.714;2022-07-12T10:54:47;3.80;;;1.37;;
8228;SDS011;4155;50.118;8.714;2022-07-12T10:57:45;1.30;;;1.20;;
8228;SDS011;4155;50.118;8.714;2022-07-12T11:00:17;2.50;;;1.30;;
8228;SDS011;4155;50.118;8.714;2022-07-12T11:02:46;1.30;;;1.20;;
8228;SDS011;4155;50.118;8.714;2022-07-12T11:05:13;6.10;;;1.10;;
8228;SDS011;4155;50.118;8.714;2022-07-12T11:07:41;1.50;;;1.40;;
8228;SDS011;4155;50.118;8.714;2022-07-12T11:10:12;2.90;;;1.20;;
8228;SDS011;4155;50.118;8.714;2022-07-12T11:12:40;1.40;;;1.30;;
8228;SDS011;4155;50.118;8.714;2022-07-12T11:15:09;2.20;;;1.10;;
8228;SDS011;4155;50.118;8.714;2022-07-12T11:17:37;1.37;;;1.27;;
8228;SDS011;4155;50.118;8.714;2022-07-12T11:20:09;2.63;;;1.10;;
8228;SDS011;4155;50.118;8.714;2022-07-12T11:22:38;3.23;;;1.20;;
8228;SDS011;4155;50.118;8.714;2022-07-12T11:25:08;1.60;;;1.10;;
8228;SDS011;4155;50.118;8.714;2022-07-12T11:27:48;1.20;;;1.10;;
8228;SDS011;4155;50.118;8.714;2022-07-12T11:30:16;1.33;;;1.20;;
8228;SDS011;4155;50.118;8.714;2022-07-12T11:32:44;1.20;;;1.10;;
8228;SDS011;4155;50.118;8.714;2022-07-12T11:35:20;1.40;;;1.30;;
8228;SDS011;4155;50.118;8.714;2022-07-12T11:37:50;2.07;;;1.50;;
8228;SDS011;4155;50.118;8.714;2022-07-12T11:40:22;1.20;;;1.00;;
8228;SDS011;4155;50.118;8.714;2022-07-12T11:42:53;1.90;;;1.20;;
8228;SDS011;4155;50.118;8.714;2022-07-12T11:45:22;1.17;;;1.07;;
8228;SDS011;4155;50.118;8.714;2022-07-12T11:47:50;2.10;;;1.10;;
8228;SDS011;4155;50.118;8.714;2022-07-12T11:50:18;2.80;;;1.10;;
8228;SDS011;4155;50.118;8.714;2022-07-12T11:52:46;1.53;;;1.00;;
8228;SDS011;4155;50.118;8.714;2022-07-12T11:55:15;1.30;;;1.20;;
8228;SDS011;4155;50.118;8.714;2022-07-12T11:57:42;2.20;;;1.07;;
8228;SDS011;4155;50.118;8.714;2022-07-12T12:00:15;2.90;;;1.20;;
8228;SDS011;4155;50.118;8.714;2022-07-12T12:02:44;1.10;;;1.00;;
8228;SDS011;4155;50.118;8.714;2022-07-12T12:05:12;0.93;;;0.93;;
8228;SDS011;4155;50.118;8.714;2022-07-12T12:07:40;1.40;;;1.00;;
8228;SDS011;4155;50.118;8.714;2022-07-12T12:10:10;1.40;;;1.10;;
8228;SDS011;4155;50.118;8.714;2022-07-12T12:12:41;2.47;;;1.20;;
8228;SDS011;4155;50.118;8.714;2022-07-12T12:15:11;0.87;;;0.87;;
8228;SDS011;4155;50.118;8.714;2022-07-12T12:17:45;3.43;;;1.10;;
8228;SDS011;4155;50.118;8.714;2022-07-12T12:20:20;0.90;;;0.90;;
8228;SDS011;4155;50.118;8.714;2022-07-12T12:22:49;0.90;;;0.90;;
8228;SDS011;4155;50.118;8.714;2022-07-12T12:25:19;1.20;;;1.10;;
8228;SDS011;4155;50.118;8.714;2022-07-12T12:27:49;2.63;;;1.30;;
8228;SDS011;4155;50.118;8.714;2022-07-12T12:30:48;3.87;;;1.07;;
8228;SDS011;4155;50.118;8.714;2022-07-12T12:33:34;1.10;;;1.00;;
8228;SDS011;4155;50.118;8.714;2022-07-12T12:36:17;1.47;;;1.03;;
8228;SDS011;4155;50.118;8.714;2022-07-12T12:38:48;3.60;;;1.00;;
8228;SDS011;4155;50.118;8.714;2022-07-12T12:41:16;1.10;;;1.00;;
8228;SDS011;4155;50.118;8.714;2022-07-12T12:43:55;0.90;;;0.90;;
8228;SDS011;4155;50.118;8.714;2022-07-12T12:52:22;1.00;;;0.90;;
8228;SDS011;4155;50.118;8.714;2022-07-12T12:54:51;1.40;;;0.90;;
8228;SDS011;4155;50.118;8.714;2022-07-12T12:57:19;1.10;;;1.00;;
8228;SDS011;4155;50.118;8.714;2022-07-12T12:59:47;2.80;;;1.30;;
8228;SDS011;4155;50.118;8.714;2022-07-12T13:02:15;0.90;;;0.90;;
8228;SDS011;4155;50.118;8.714;2022-07-12T13:04:43;1.63;;;0.90;;
8228;SDS011;4155;50.118;8.714;2022-07-12T13:07:12;2.03;;;1.00;;
8228;SDS011;4155;50.118;8.714;2022-07-12T13:09:39;2.80;;;1.13;;
8228;SDS011;4155;50.118;8.714;2022-07-12T13:12:08;1.23;;;0.90;;
8228;SDS011;4155;50.118;8.714;2022-07-12T13:14:36;1.00;;;0.90;;
8228;SDS011;4155;50.118;8.714;2022-07-12T13:17:04;1.00;;;0.90;;
8228;SDS011;4155;50.118;8.714;2022-07-12T13:19:32;1.10;;;1.00;;
8228;SDS011;4155;50.118;8.714;2022-07-12T13:22:00;2.30;;;0.80;;
8228;SDS011;4155;50.118;8.714;2022-07-12T13:24:29;1.67;;;1.00;;
8228;SDS011;4155;50.118;8.714;2022-07-12T13:26:57;1.03;;;1.03;;
8228;SDS011;4155;50.118;8.714;2022-07-12T13:29:24;3.53;;;0.90;;
8228;SDS011;4155;50.118;8.714;2022-07-12T13:31:52;0.80;;;0.80;;
8228;SDS011;4155;50.118;8.714;2022-07-12T13:34:22;0.80;;;0.80;;
8228;SDS011;4155;50.118;8.714;2022-07-12T13:36:50;1.43;;;1.00;;
8228;SDS011;4155;50.118;8.714;2022-07-12T13:39:18;5.80;;;1.20;;
8228;SDS011;4155;50.118;8.714;2022-07-12T13:42:05;0.80;;;0.70;;
8228;SDS011;4155;50.118;8.714;2022-07-12T13:44:33;2.00;;;0.90;;
8228;SDS011;4155;50.118;8.714;2022-07-12T13:47:01;1.53;;;0.97;;
8228;SDS011;4155;50.118;8.714;2022-07-12T13:49:29;4.70;;;1.00;;
8228;SDS011;4155;50.118;8.714;2022-07-12T13:51:57;1.23;;;0.80;;
8228;SDS011;4155;50.118;8.714;2022-07-12T13:54:25;1.53;;;1.00;;
8228;SDS011;4155;50.118;8.714;2022-07-12T13:56:52;0.80;;;0.80;;
8228;SDS011;4155;50.118;8.714;2022-07-12T13:59:23;3.63;;;1.10;;
8228;SDS011;4155;50.118;8.714;2022-07-12T14:01:50;0.93;;;0.80;;
8228;SDS011;4155;50.118;8.714;2022-07-12T14:04:18;1.10;;;0.90;;
8228;SDS011;4155;50.118;8.714;2022-07-12T14:06:47;0.90;;;0.80;;
8228;SDS011;4155;50.118;8.714;2022-07-12T14:09:15;1.13;;;0.90;;
8228;SDS011;4155;50.118;8.714;2022-07-12T14:11:42;2.13;;;1.93;;
8228;SDS011;4155;50.118;8.714;2022-07-12T14:14:10;2.20;;;0.93;;
8228;SDS011;4155;50.118;8.714;2022-07-12T14:16:45;1.10;;;1.00;;
8228;SDS011;4155;50.118;8.714;2022-07-12T14:19:13;2.17;;;1.00;;
8228;SDS011;4155;50.118;8.714;2022-07-12T14:21:40;0.80;;;0.80;;
8228;SDS011;4155;50.118;8.714;2022-07-12T14:24:08;1.80;;;0.87;;
8228;SDS011;4155;50.118;8.714;2022-07-12T14:26:37;0.80;;;0.80;;
8228;SDS011;4155;50.118;8.714;2022-07-12T14:29:05;1.00;;;0.90;;
8228;SDS011;4155;50.118;8.714;2022-07-12T14:31:32;1.93;;;0.70;;
8228;SDS011;4155;50.118;8.714;2022-07-12T14:34:02;1.40;;;0.90;;
8228;SDS011;4155;50.118;8.714;2022-07-12T14:36:29;0.90;;;0.90;;
8228;SDS011;4155;50.118;8.714;2022-07-12T14:38:57;2.40;;;0.80;;
8228;SDS011;4155;50.118;8.714;2022-07-12T14:41:25;1.00;;;0.90;;
8228;SDS011;4155;50.118;8.714;2022-07-12T14:43:53;0.80;;;0.80;;
8228;SDS011;4155;50.118;8.714;2022-07-12T14:46:21;2.40;;;1.00;;
8228;SDS011;4155;50.118;8.714;2022-07-12T14:48:49;0.83;;;0.83;;
8228;SDS011;4155;50.118;8.714;2022-07-12T14:51:18;9.03;;;0.90;;
8228;SDS011;4155;50.118;8.714;2022-07-12T14:53:46;0.80;;;0.77;;
8228;SDS011;4155;50.118;8.714;2022-07-12T14:56:14;0.83;;;0.83;;
8228;SDS011;4155;50.118;8.714;2022-07-12T14:58:42;0.80;;;0.80;;
8228;SDS011;4155;50.118;8.714;2022-07-12T15:01:10;1.03;;;1.00;;
8228;SDS011;4155;50.118;8.714;2022-07-12T15:03:38;2.43;;;0.80;;
8228;SDS011;4155;50.118;8.714;2022-07-12T15:06:06;0.90;;;0.90;;
8228;SDS011;4155;50.118;8.714;2022-07-12T15:08:35;2.20;;;0.90;;
8228;SDS011;4155;50.118;8.714;2022-07-12T15:11:02;1.00;;;0.90;;
8228;SDS011;4155;50.118;8.714;2022-07-12T15:13:30;1.17;;;1.00;;
8228;SDS011;4155;50.118;8.714;2022-07-12T15:15:58;0.93;;;0.83;;
8228;SDS011;4155;50.118;8.714;2022-07-12T15:18:26;2.50;;;0.90;;
8228;SDS011;4155;50.118;8.714;2022-07-12T15:20:54;0.80;;;0.80;;
8228;SDS011;4155;50.118;8.714;2022-07-12T15:23:22;1.57;;;0.93;;
8228;SDS011;4155;50.118;8.714;2022-07-12T15:25:51;1.10;;;1.00;;
8228;SDS011;4155;50.118;8.714;2022-07-12T15:28:19;2.00;;;0.90;;
8228;SDS011;4155;50.118;8.714;2022-07-12T15:30:47;0.70;;;0.70;;
8228;SDS011;4155;50.118;8.714;2022-07-12T15:33:15;1.03;;;0.90;;
8228;SDS011;4155;50.118;8.714;2022-07-12T15:35:42;0.80;;;0.80;;
8228;SDS011;4155;50.118;8.714;2022-07-12T15:38:10;4.30;;;0.90;;
8228;SDS011;4155;50.118;8.714;2022-07-12T15:40:38;1.00;;;0.90;;
8228;SDS011;4155;50.118;8.714;2022-07-12T15:43:07;4.17;;;1.00;;